sensor_id;sensor_type;location;lat;lon;timestamp;temperature;humidity
8214;DHT22;4148;47.974;7.824;2023-11-22T00:01:24;8.30;17.20
8214;DHT22;4148;47.974;7.824;2023-11-22T00:03:52;8.30;18.20
8214;DHT22;4148;47.974;7.824;2023-11-22T00:06:21;8.30;18.10
8214;DHT22;4148;47.974;7.824;2023-11-22T00:08:49;8.30;17.80
8214;DHT22;4148;47.974;7.824;2023-11-22T00:11:16;8.40;18.90
8214;DHT22;4148;47.974;7.824;2023-11-22T00:13:46;8.30;17.30
8214;DHT22;4148;47.974;7.824;2023-11-22T00:16:15;8.30;14.10
8214;DHT22;4148;47.974;7.824;2023-11-22T00:18:43;8.40;16.00
8214;DHT22;4148;47.974;7.824;2023-11-22T00:21:11;8.30;14.50
8214;DHT22;4148;47.974;7.824;2023-11-22T00:23:39;8.30;14.20
8214;DHT22;4148;47.974;7.824;2023-11-22T00:26:07;8.30;15.80
8214;DHT22;4148;47.974;7.824;2023-11-22T00:28:35;8.20;15.20
8214;DHT22;4148;47.974;7.824;2023-11-22T00:31:04;8.30;17.70
8214;DHT22;4148;47.974;7.824;2023-11-22T00:33:32;8.20;15.70
8214;DHT22;4148;47.974;7.824;2023-11-22T00:36:01;8.10;16.30
8214;DHT22;4148;47.974;7.824;2023-11-22T00:38:31;8.10;20.20
8214;DHT22;4148;47.974;7.824;2023-11-22T00:41:02;8.10;20.00
8214;DHT22;4148;47.974;7.824;2023-11-22T00:43:30;8.10;23.30
8214;DHT22;4148;47.974;7.824;2023-11-22T00:45:59;8.10;24.90
8214;DHT22;4148;47.974;7.824;2023-11-22T00:48:29;8.20;24.80
8214;DHT22;4148;47.974;7.824;2023-11-22T00:50:57;8.20;21.70
8214;DHT22;4148;47.974;7.824;2023-11-22T00:53:26;8.20;21.90
8214;DHT22;4148;47.974;7.824;2023-11-22T00:55:54;8.20;19.90
8214;DHT22;4148;47.974;7.824;2023-11-22T00:58:22;8.20;17.90
8214;DHT22;4148;47.974;7.824;2023-11-22T01:00:50;8.20;19.30
8214;DHT22;4148;47.974;7.824;2023-11-22T01:03:18;8.20;17.70
8214;DHT22;4148;47.974;7.824;2023-11-22T01:05:47;8.30;15.00
8214;DHT22;4148;47.974;7.824;2023-11-22T01:08:15;8.20;15.00
8214;DHT22;4148;47.974;7.824;2023-11-22T01:10:43;8.20;14.60
8214;DHT22;4148;47.974;7.824;2023-11-22T01:13:11;8.20;16.80
8214;DHT22;4148;47.974;7.824;2023-11-22T01:15:41;8.20;16.30
8214;DHT22;4148;47.974;7.824;2023-11-22T01:18:11;8.20;16.70
8214;DHT22;4148;47.974;7.824;2023-11-22T01:20:39;8.20;16.80
8214;DHT22;4148;47.974;7.824;2023-11-22T01:23:08;8.20;16.90
8214;DHT22;4148;47.974;7.824;2023-11-22T01:25:36;8.20;16.40
8214;DHT22;4148;47.974;7.824;2023-11-22T01:28:04;8.20;17.30
8214;DHT22;4148;47.974;7.824;2023-11-22T01:30:33;8.20;17.80
8214;DHT22;4148;47.974;7.824;2023-11-22T01:33:01;8.20;18.20
8214;DHT22;4148;47.974;7.824;2023-11-22T01:35:29;8.20;14.90
8214;DHT22;4148;47.974;7.824;2023-11-22T01:37:57;8.20;14.40
8214;DHT22;4148;47.974;7.824;2023-11-22T01:40:27;8.30;14.60
8214;DHT22;4148;47.974;7.824;2023-11-22T01:42:55;8.30;15.70
8214;DHT22;4148;47.974;7.824;2023-11-22T01:45:23;8.30;15.00
8214;DHT22;4148;47.974;7.824;2023-11-22T01:47:51;8.20;13.90
8214;DHT22;4148;47.974;7.824;2023-11-22T01:50:19;8.20;14.40
8214;DHT22;4148;47.974;7.824;2023-11-22T01:52:47;8.20;15.50
8214;DHT22;4148;47.974;7.824;2023-11-22T01:55:15;8.20;14.80
8214;DHT22;4148;47.974;7.824;2023-11-22T01:57:45;8.20;16.60
8214;DHT22;4148;47.974;7.824;2023-11-22T02:00:13;8.20;14.90
8214;DHT22;4148;47.974;7.824;2023-11-22T02:02:43;8.30;18.10
8214;DHT22;4148;47.974;7.824;2023-11-22T02:05:11;8.20;14.40
8214;DHT22;4148;47.974;7.824;2023-11-22T02:07:39;8.30;14.80
8214;DHT22;4148;47.974;7.824;2023-11-22T02:10:08;8.20;12.40
8214;DHT22;4148;47.974;7.824;2023-11-22T02:12:36;8.10;15.20
8214;DHT22;4148;47.974;7.824;2023-11-22T02:15:06;8.10;14.70
8214;DHT22;4148;47.974;7.824;2023-11-22T02:17:34;8.20;16.40
8214;DHT22;4148;47.974;7.824;2023-11-22T02:20:03;8.20;13.70
8214;DHT22;4148;47.974;7.824;2023-11-22T02:22:33;8.10;17.50
8214;DHT22;4148;47.974;7.824;2023-11-22T02:25:02;8.10;14.40
8214;DHT22;4148;47.974;7.824;2023-11-22T02:27:31;8.10;11.50
8214;DHT22;4148;47.974;7.824;2023-11-22T02:29:59;8.00;14.00
8214;DHT22;4148;47.974;7.824;2023-11-22T02:32:27;8.00;16.20
8214;DHT22;4148;47.974;7.824;2023-11-22T02:34:56;8.00;16.30
8214;DHT22;4148;47.974;7.824;2023-11-22T02:37:24;8.10;18.00
8214;DHT22;4148;47.974;7.824;2023-11-22T02:39:57;8.10;18.00
8214;DHT22;4148;47.974;7.824;2023-11-22T02:42:29;8.10;14.40
8214;DHT22;4148;47.974;7.824;2023-11-22T02:44:57;8.10;12.00
8214;DHT22;4148;47.974;7.824;2023-11-22T02:47:25;8.10;11.80
8214;DHT22;4148;47.974;7.824;2023-11-22T02:49:53;8.10;3.40
8214;DHT22;4148;47.974;7.824;2023-11-22T02:52:21;8.00;6.80
8214;DHT22;4148;47.974;7.824;2023-11-22T02:54:50;8.00;5.70
8214;DHT22;4148;47.974;7.824;2023-11-22T02:57:18;8.00;7.50
8214;DHT22;4148;47.974;7.824;2023-11-22T02:59:48;7.90;1.00
8214;DHT22;4148;47.974;7.824;2023-11-22T03:02:15;7.90;1.00
8214;DHT22;4148;47.974;7.824;2023-11-22T03:04:44;7.80;1.10
8214;DHT22;4148;47.974;7.824;2023-11-22T03:07:12;7.80;1.80
8214;DHT22;4148;47.974;7.824;2023-11-22T03:09:39;7.70;1.00
8214;DHT22;4148;47.974;7.824;2023-11-22T03:12:07;7.70;2.80
8214;DHT22;4148;47.974;7.824;2023-11-22T03:14:36;7.60;1.00
8214;DHT22;4148;47.974;7.824;2023-11-22T03:17:05;7.60;1.00
8214;DHT22;4148;47.974;7.824;2023-11-22T03:19:33;7.60;1.00
8214;DHT22;4148;47.974;7.824;2023-11-22T03:22:01;7.50;1.00
8214;DHT22;4148;47.974;7.824;2023-11-22T03:24:30;7.50;1.00
8214;DHT22;4148;47.974;7.824;2023-11-22T03:26:57;7.40;1.00
8214;DHT22;4148;47.974;7.824;2023-11-22T03:29:26;7.30;1.00
8214;DHT22;4148;47.974;7.824;2023-11-22T03:31:54;7.20;1.00
8214;DHT22;4148;47.974;7.824;2023-11-22T03:34:23;7.20;1.00
8214;DHT22;4148;47.974;7.824;2023-11-22T03:36:51;7.10;1.00
8214;DHT22;4148;47.974;7.824;2023-11-22T03:39:19;7.10;1.00
8214;DHT22;4148;47.974;7.824;2023-11-22T03:41:49;7.10;1.00
8214;DHT22;4148;47.974;7.824;2023-11-22T03:44:17;7.00;1.00
8214;DHT22;4148;47.974;7.824;2023-11-22T03:46:45;6.90;1.00
8214;DHT22;4148;47.974;7.824;2023-11-22T03:49:13;6.90;1.00
8214;DHT22;4148;47.974;7.824;2023-11-22T03:51:42;6.90;1.00
8214;DHT22;4148;47.974;7.824;2023-11-22T03:54:10;6.80;1.00
8214;DHT22;4148;47.974;7.824;2023-11-22T03:56:39;6.80;1.00
8214;DHT22;4148;47.974;7.824;2023-11-22T03:59:07;6.70;1.00
8214;DHT22;4148;47.974;7.824;2023-11-22T04:01:35;6.60;1.00
8214;DHT22;4148;47.974;7.824;2023-11-22T04:04:03;6.60;1.00
8214;DHT22;4148;47.974;7.824;2023-11-22T04:06:31;6.60;1.00
8214;DHT22;4148;47.974;7.824;2023-11-22T04:09:01;6.50;1.00
8214;DHT22;4148;47.974;7.824;2023-11-22T04:11:29;6.50;1.00
8214;DHT22;4148;47.974;7.824;2023-11-22T04:13:57;6.40;1.00
8214;DHT22;4148;47.974;7.824;2023-11-22T04:16:26;6.50;1.00
8214;DHT22;4148;47.974;7.824;2023-11-22T04:18:54;6.40;1.00
8214;DHT22;4148;47.974;7.824;2023-11-22T04:21:22;6.40;1.00
8214;DHT22;4148;47.974;7.824;2023-11-22T04:23:50;6.30;1.00
8214;DHT22;4148;47.974;7.824;2023-11-22T04:26:20;6.30;1.00
8214;DHT22;4148;47.974;7.824;2023-11-22T04:28:48;6.20;1.00
8214;DHT22;4148;47.974;7.824;2023-11-22T04:31:16;6.20;1.00
8214;DHT22;4148;47.974;7.824;2023-11-22T04:33:44;6.10;1.00
8214;DHT22;4148;47.974;7.824;2023-11-22T04:36:12;6.10;1.00
8214;DHT22;4148;47.974;7.824;2023-11-22T04:38:40;6.10;1.00
8214;DHT22;4148;47.974;7.824;2023-11-22T04:41:08;6.10;1.00
8214;DHT22;4148;47.974;7.824;2023-11-22T04:43:37;6.10;1.00
8214;DHT22;4148;47.974;7.824;2023-11-22T04:46:05;6.00;1.00
8214;DHT22;4148;47.974;7.824;2023-11-22T04:48:33;6.00;1.00
8214;DHT22;4148;47.974;7.824;2023-11-22T04:51:01;5.90;1.00
8214;DHT22;4148;47.974;7.824;2023-11-22T04:53:29;5.90;1.00
8214;DHT22;4148;47.974;7.824;2023-11-22T04:55:56;5.80;1.00
8214;DHT22;4148;47.974;7.824;2023-11-22T04:58:25;5.90;1.00
8214;DHT22;4148;47.974;7.824;2023-11-22T05:00:56;5.80;1.00
8214;DHT22;4148;47.974;7.824;2023-11-22T05:03:24;5.90;1.00
8214;DHT22;4148;47.974;7.824;2023-11-22T05:05:53;5.90;1.00
8214;DHT22;4148;47.974;7.824;2023-11-22T05:08:20;5.80;1.00
8214;DHT22;4148;47.974;7.824;2023-11-22T05:10:48;5.80;1.00
8214;DHT22;4148;47.974;7.824;2023-11-22T05:13:19;5.90;1.00
8214;DHT22;4148;47.974;7.824;2023-11-22T05:15:47;5.90;1.00
8214;DHT22;4148;47.974;7.824;2023-11-22T05:18:16;5.90;1.00
8214;DHT22;4148;47.974;7.824;2023-11-22T05:20:44;5.80;1.00
8214;DHT22;4148;47.974;7.824;2023-11-22T05:23:15;5.80;1.00
8214;DHT22;4148;47.974;7.824;2023-11-22T05:25:43;5.80;1.00
8214;DHT22;4148;47.974;7.824;2023-11-22T05:28:11;5.80;1.00
8214;DHT22;4148;47.974;7.824;2023-11-22T05:30:39;5.80;1.00
8214;DHT22;4148;47.974;7.824;2023-11-22T05:33:07;5.70;1.00
8214;DHT22;4148;47.974;7.824;2023-11-22T05:35:36;5.70;1.00
8214;DHT22;4148;47.974;7.824;2023-11-22T05:38:04;5.60;1.00
8214;DHT22;4148;47.974;7.824;2023-11-22T05:40:32;5.70;1.00
8214;DHT22;4148;47.974;7.824;2023-11-22T05:43:00;5.80;1.00
8214;DHT22;4148;47.974;7.824;2023-11-22T05:45:28;5.80;1.00
8214;DHT22;4148;47.974;7.824;2023-11-22T05:47:56;5.80;1.00
8214;DHT22;4148;47.974;7.824;2023-11-22T05:50:24;5.70;1.00
8214;DHT22;4148;47.974;7.824;2023-11-22T05:52:54;5.70;1.00
8214;DHT22;4148;47.974;7.824;2023-11-22T05:55:21;5.70;1.00
8214;DHT22;4148;47.974;7.824;2023-11-22T05:57:50;5.60;1.00
8214;DHT22;4148;47.974;7.824;2023-11-22T06:00:18;5.60;1.00
8214;DHT22;4148;47.974;7.824;2023-11-22T06:02:47;5.60;1.00
8214;DHT22;4148;47.974;7.824;2023-11-22T06:05:15;5.50;1.00
8214;DHT22;4148;47.974;7.824;2023-11-22T06:07:43;5.50;1.00
8214;DHT22;4148;47.974;7.824;2023-11-22T06:10:13;5.50;1.00
8214;DHT22;4148;47.974;7.824;2023-11-22T06:12:42;5.50;1.00
8214;DHT22;4148;47.974;7.824;2023-11-22T06:15:10;5.50;1.00
8214;DHT22;4148;47.974;7.824;2023-11-22T06:17:38;5.40;1.00
8214;DHT22;4148;47.974;7.824;2023-11-22T06:20:08;5.40;1.00
8214;DHT22;4148;47.974;7.824;2023-11-22T06:22:37;5.40;1.00
8214;DHT22;4148;47.974;7.824;2023-11-22T06:25:08;5.30;1.00
8214;DHT22;4148;47.974;7.824;2023-11-22T06:27:38;5.20;1.00
8214;DHT22;4148;47.974;7.824;2023-11-22T06:30:07;5.30;1.00
8214;DHT22;4148;47.974;7.824;2023-11-22T06:32:36;5.30;1.00
8214;DHT22;4148;47.974;7.824;2023-11-22T06:35:04;5.20;1.00
8214;DHT22;4148;47.974;7.824;2023-11-22T06:37:35;5.20;1.00
8214;DHT22;4148;47.974;7.824;2023-11-22T06:40:04;5.30;1.00
8214;DHT22;4148;47.974;7.824;2023-11-22T06:42:32;5.30;1.00
8214;DHT22;4148;47.974;7.824;2023-11-22T06:45:01;5.20;1.00
8214;DHT22;4148;47.974;7.824;2023-11-22T06:47:30;5.20;1.00
8214;DHT22;4148;47.974;7.824;2023-11-22T06:49:58;5.20;1.00
8214;DHT22;4148;47.974;7.824;2023-11-22T06:52:26;5.20;1.00
8214;DHT22;4148;47.974;7.824;2023-11-22T06:54:54;5.10;1.00
8214;DHT22;4148;47.974;7.824;2023-11-22T06:57:22;5.00;1.00
8214;DHT22;4148;47.974;7.824;2023-11-22T06:59:55;5.10;1.00
8214;DHT22;4148;47.974;7.824;2023-11-22T07:02:25;5.00;1.00
8214;DHT22;4148;47.974;7.824;2023-11-22T07:04:53;5.00;1.00
8214;DHT22;4148;47.974;7.824;2023-11-22T07:07:21;4.90;1.00
8214;DHT22;4148;47.974;7.824;2023-11-22T07:09:49;4.90;1.00
8214;DHT22;4148;47.974;7.824;2023-11-22T07:12:17;4.90;1.00
8214;DHT22;4148;47.974;7.824;2023-11-22T07:14:46;5.00;1.00
8214;DHT22;4148;47.974;7.824;2023-11-22T07:17:16;5.00;1.00
8214;DHT22;4148;47.974;7.824;2023-11-22T07:19:46;5.00;1.00
8214;DHT22;4148;47.974;7.824;2023-11-22T07:22:15;5.00;1.00
8214;DHT22;4148;47.974;7.824;2023-11-22T07:24:46;5.00;1.00
8214;DHT22;4148;47.974;7.824;2023-11-22T07:27:18;4.90;1.00
8214;DHT22;4148;47.974;7.824;2023-11-22T07:29:46;5.00;1.00
8214;DHT22;4148;47.974;7.824;2023-11-22T07:32:14;5.00;1.00
8214;DHT22;4148;47.974;7.824;2023-11-22T07:34:42;5.00;1.00
8214;DHT22;4148;47.974;7.824;2023-11-22T07:37:11;4.90;1.00
8214;DHT22;4148;47.974;7.824;2023-11-22T07:39:39;4.90;1.00
8214;DHT22;4148;47.974;7.824;2023-11-22T07:42:09;4.90;1.00
8214;DHT22;4148;47.974;7.824;2023-11-22T07:44:37;4.70;1.00
8214;DHT22;4148;47.974;7.824;2023-11-22T07:47:06;4.70;1.00
8214;DHT22;4148;47.974;7.824;2023-11-22T07:49:38;4.70;1.00
8214;DHT22;4148;47.974;7.824;2023-11-22T07:52:06;4.70;1.00
8214;DHT22;4148;47.974;7.824;2023-11-22T07:54:35;4.70;1.00
8214;DHT22;4148;47.974;7.824;2023-11-22T07:57:04;4.60;1.00
8214;DHT22;4148;47.974;7.824;2023-11-22T07:59:32;4.60;1.00
8214;DHT22;4148;47.974;7.824;2023-11-22T08:02:00;4.50;1.00
8214;DHT22;4148;47.974;7.824;2023-11-22T08:04:29;4.50;1.00
8214;DHT22;4148;47.974;7.824;2023-11-22T08:06:58;4.60;1.00
8214;DHT22;4148;47.974;7.824;2023-11-22T08:09:28;4.70;1.00
8214;DHT22;4148;47.974;7.824;2023-11-22T08:12:00;4.60;1.00
8214;DHT22;4148;47.974;7.824;2023-11-22T08:14:32;4.50;1.00
8214;DHT22;4148;47.974;7.824;2023-11-22T08:17:00;4.50;1.00
8214;DHT22;4148;47.974;7.824;2023-11-22T08:19:28;4.40;1.00
8214;DHT22;4148;47.974;7.824;2023-11-22T08:21:56;4.50;1.00
8214;DHT22;4148;47.974;7.824;2023-11-22T08:24:25;4.40;1.00
8214;DHT22;4148;47.974;7.824;2023-11-22T08:26:53;4.50;1.00
8214;DHT22;4148;47.974;7.824;2023-11-22T08:29:22;4.50;1.00
8214;DHT22;4148;47.974;7.824;2023-11-22T08:31:50;4.50;1.00
8214;DHT22;4148;47.974;7.824;2023-11-22T08:34:18;4.60;1.00
8214;DHT22;4148;47.974;7.824;2023-11-22T08:36:46;4.70;1.00
8214;DHT22;4148;47.974;7.824;2023-11-22T08:39:14;4.60;1.00
8214;DHT22;4148;47.974;7.824;2023-11-22T08:41:42;4.50;1.00
8214;DHT22;4148;47.974;7.824;2023-11-22T08:44:10;4.50;1.00
8214;DHT22;4148;47.974;7.824;2023-11-22T08:46:39;4.50;1.00
8214;DHT22;4148;47.974;7.824;2023-11-22T08:49:07;4.60;1.00
8214;DHT22;4148;47.974;7.824;2023-11-22T08:51:38;4.60;1.00
8214;DHT22;4148;47.974;7.824;2023-11-22T08:54:06;4.60;1.00
8214;DHT22;4148;47.974;7.824;2023-11-22T08:56:33;4.50;1.00
8214;DHT22;4148;47.974;7.824;2023-11-22T08:59:02;4.60;1.00
8214;DHT22;4148;47.974;7.824;2023-11-22T09:01:32;4.50;1.00
8214;DHT22;4148;47.974;7.824;2023-11-22T09:04:01;4.60;1.00
8214;DHT22;4148;47.974;7.824;2023-11-22T09:06:29;4.50;1.00
8214;DHT22;4148;47.974;7.824;2023-11-22T09:08:57;4.50;1.00
8214;DHT22;4148;47.974;7.824;2023-11-22T09:11:25;4.50;1.00
8214;DHT22;4148;47.974;7.824;2023-11-22T09:13:53;4.50;1.00
8214;DHT22;4148;47.974;7.824;2023-11-22T09:16:23;4.50;1.00
8214;DHT22;4148;47.974;7.824;2023-11-22T09:18:52;4.50;1.00
8214;DHT22;4148;47.974;7.824;2023-11-22T09:21:22;4.40;1.00
8214;DHT22;4148;47.974;7.824;2023-11-22T09:23:52;4.50;1.00
8214;DHT22;4148;47.974;7.824;2023-11-22T09:26:20;4.60;1.00
8214;DHT22;4148;47.974;7.824;2023-11-22T09:28:48;4.60;1.00
8214;DHT22;4148;47.974;7.824;2023-11-22T09:31:15;4.50;1.00
8214;DHT22;4148;47.974;7.824;2023-11-22T09:33:46;4.60;1.00
8214;DHT22;4148;47.974;7.824;2023-11-22T09:36:15;4.60;1.00
8214;DHT22;4148;47.974;7.824;2023-11-22T09:38:46;4.50;1.00
8214;DHT22;4148;47.974;7.824;2023-11-22T09:41:14;4.50;1.00
8214;DHT22;4148;47.974;7.824;2023-11-22T09:43:43;4.60;1.00
8214;DHT22;4148;47.974;7.824;2023-11-22T09:46:13;4.70;1.00
8214;DHT22;4148;47.974;7.824;2023-11-22T09:48:42;4.70;1.00
8214;DHT22;4148;47.974;7.824;2023-11-22T09:51:20;4.70;1.00
8214;DHT22;4148;47.974;7.824;2023-11-22T09:53:56;4.70;1.00
8214;DHT22;4148;47.974;7.824;2023-11-22T09:56:26;4.70;1.00
8214;DHT22;4148;47.974;7.824;2023-11-22T09:58:55;4.80;1.00
8214;DHT22;4148;47.974;7.824;2023-11-22T10:01:27;4.90;1.00
8214;DHT22;4148;47.974;7.824;2023-11-22T10:03:58;4.90;1.00
8214;DHT22;4148;47.974;7.824;2023-11-22T10:06:27;4.90;1.00
8214;DHT22;4148;47.974;7.824;2023-11-22T10:09:01;4.90;1.00
8214;DHT22;4148;47.974;7.824;2023-11-22T10:11:34;4.90;1.00
8214;DHT22;4148;47.974;7.824;2023-11-22T10:14:03;4.90;1.00
8214;DHT22;4148;47.974;7.824;2023-11-22T10:16:31;4.90;1.00
8214;DHT22;4148;47.974;7.824;2023-11-22T10:18:59;4.80;1.00
8214;DHT22;4148;47.974;7.824;2023-11-22T10:21:28;4.80;1.00
8214;DHT22;4148;47.974;7.824;2023-11-22T10:24:02;4.80;1.00
8214;DHT22;4148;47.974;7.824;2023-11-22T10:26:31;4.80;1.00
8214;DHT22;4148;47.974;7.824;2023-11-22T10:28:59;4.80;1.00
8214;DHT22;4148;47.974;7.824;2023-11-22T10:31:29;4.80;1.00
8214;DHT22;4148;47.974;7.824;2023-11-22T10:33:56;4.90;1.00
8214;DHT22;4148;47.974;7.824;2023-11-22T10:36:25;4.90;1.00
8214;DHT22;4148;47.974;7.824;2023-11-22T10:41:26;4.90;1.00
8214;DHT22;4148;47.974;7.824;2023-11-22T10:43:54;5.00;1.00
8214;DHT22;4148;47.974;7.824;2023-11-22T10:46:27;5.00;1.00
8214;DHT22;4148;47.974;7.824;2023-11-22T10:48:56;5.10;1.00
8214;DHT22;4148;47.974;7.824;2023-11-22T10:51:27;5.00;1.00
8214;DHT22;4148;47.974;7.824;2023-11-22T10:53:58;4.90;1.00
8214;DHT22;4148;47.974;7.824;2023-11-22T10:56:31;4.90;1.00
8214;DHT22;4148;47.974;7.824;2023-11-22T10:59:02;5.00;1.00
8214;DHT22;4148;47.974;7.824;2023-11-22T11:01:34;5.00;99.90
8214;DHT22;4148;47.974;7.824;2023-11-22T11:04:07;5.00;1.00
8214;DHT22;4148;47.974;7.824;2023-11-22T11:06:38;5.00;1.00
8214;DHT22;4148;47.974;7.824;2023-11-22T11:09:07;5.00;1.00
8214;DHT22;4148;47.974;7.824;2023-11-22T11:11:39;5.00;1.00
8214;DHT22;4148;47.974;7.824;2023-11-22T11:14:08;5.00;1.00
8214;DHT22;4148;47.974;7.824;2023-11-22T11:16:39;4.90;1.00
8214;DHT22;4148;47.974;7.824;2023-11-22T11:19:08;4.90;1.00
8214;DHT22;4148;47.974;7.824;2023-11-22T11:21:37;5.00;1.00
8214;DHT22;4148;47.974;7.824;2023-11-22T11:24:07;5.00;99.90
8214;DHT22;4148;47.974;7.824;2023-11-22T11:26:34;5.00;99.90
8214;DHT22;4148;47.974;7.824;2023-11-22T11:29:04;5.10;99.90
8214;DHT22;4148;47.974;7.824;2023-11-22T11:31:38;5.10;99.90
8214;DHT22;4148;47.974;7.824;2023-11-22T11:34:08;5.10;99.90
8214;DHT22;4148;47.974;7.824;2023-11-22T11:36:38;5.10;99.90
8214;DHT22;4148;47.974;7.824;2023-11-22T11:39:07;5.00;99.90
8214;DHT22;4148;47.974;7.824;2023-11-22T11:41:41;5.00;99.90
8214;DHT22;4148;47.974;7.824;2023-11-22T11:44:11;5.00;7.60
8214;DHT22;4148;47.974;7.824;2023-11-22T11:46:39;5.00;99.90
8214;DHT22;4148;47.974;7.824;2023-11-22T11:49:09;5.00;99.90
8214;DHT22;4148;47.974;7.824;2023-11-22T11:51:40;5.00;99.90
8214;DHT22;4148;47.974;7.824;2023-11-22T11:54:12;4.90;1.00
8214;DHT22;4148;47.974;7.824;2023-11-22T11:56:44;4.90;99.90
8214;DHT22;4148;47.974;7.824;2023-11-22T11:59:14;4.90;1.00
8214;DHT22;4148;47.974;7.824;2023-11-22T12:01:42;4.90;99.90
8214;DHT22;4148;47.974;7.824;2023-11-22T12:04:10;4.90;99.90
8214;DHT22;4148;47.974;7.824;2023-11-22T12:06:38;4.80;99.90
8214;DHT22;4148;47.974;7.824;2023-11-22T12:09:06;4.80;99.90
8214;DHT22;4148;47.974;7.824;2023-11-22T12:11:34;4.70;1.00
8214;DHT22;4148;47.974;7.824;2023-11-22T12:14:02;4.80;99.90
8214;DHT22;4148;47.974;7.824;2023-11-22T12:16:32;4.80;1.00
8214;DHT22;4148;47.974;7.824;2023-11-22T12:19:01;4.80;1.00
8214;DHT22;4148;47.974;7.824;2023-11-22T12:21:30;4.80;1.00
8214;DHT22;4148;47.974;7.824;2023-11-22T12:23:58;4.70;99.90
8214;DHT22;4148;47.974;7.824;2023-11-22T12:26:27;4.60;1.00
8214;DHT22;4148;47.974;7.824;2023-11-22T12:28:55;4.60;1.00
8214;DHT22;4148;47.974;7.824;2023-11-22T12:31:33;4.50;1.00
8214;DHT22;4148;47.974;7.824;2023-11-22T12:34:03;4.50;99.90
8214;DHT22;4148;47.974;7.824;2023-11-22T12:36:33;4.60;1.00
8214;DHT22;4148;47.974;7.824;2023-11-22T12:39:02;4.60;1.00
8214;DHT22;4148;47.974;7.824;2023-11-22T12:41:31;4.60;99.90
8214;DHT22;4148;47.974;7.824;2023-11-22T12:44:03;4.40;86.10
8214;DHT22;4148;47.974;7.824;2023-11-22T12:46:47;4.50;99.90
8214;DHT22;4148;47.974;7.824;2023-11-22T12:49:16;4.60;1.00
8214;DHT22;4148;47.974;7.824;2023-11-22T12:51:47;4.60;99.90
8214;DHT22;4148;47.974;7.824;2023-11-22T12:54:15;4.50;1.00
8214;DHT22;4148;47.974;7.824;2023-11-22T12:56:45;4.50;1.00
8214;DHT22;4148;47.974;7.824;2023-11-22T12:59:13;4.60;99.90
8214;DHT22;4148;47.974;7.824;2023-11-22T13:01:41;4.50;99.90
8214;DHT22;4148;47.974;7.824;2023-11-22T13:04:11;4.50;99.90
8214;DHT22;4148;47.974;7.824;2023-11-22T13:06:42;4.50;1.00
8214;DHT22;4148;47.974;7.824;2023-11-22T13:09:10;4.50;99.90
8214;DHT22;4148;47.974;7.824;2023-11-22T13:11:42;4.40;1.00
8214;DHT22;4148;47.974;7.824;2023-11-22T13:14:10;4.50;1.00
8214;DHT22;4148;47.974;7.824;2023-11-22T13:16:41;4.50;1.00
8214;DHT22;4148;47.974;7.824;2023-11-22T13:19:11;4.50;49.20
8214;DHT22;4148;47.974;7.824;2023-11-22T13:21:39;4.50;1.00
8214;DHT22;4148;47.974;7.824;2023-11-22T13:24:08;4.40;99.90
8214;DHT22;4148;47.974;7.824;2023-11-22T13:26:37;4.40;99.90
8214;DHT22;4148;47.974;7.824;2023-11-22T13:29:05;4.40;99.90
8214;DHT22;4148;47.974;7.824;2023-11-22T13:31:33;4.40;1.00
8214;DHT22;4148;47.974;7.824;2023-11-22T13:34:01;4.40;79.40
8214;DHT22;4148;47.974;7.824;2023-11-22T13:36:30;4.40;1.00
8214;DHT22;4148;47.974;7.824;2023-11-22T13:38:59;4.40;99.90
8214;DHT22;4148;47.974;7.824;2023-11-22T13:41:27;4.40;99.90
8214;DHT22;4148;47.974;7.824;2023-11-22T13:43:55;4.30;99.90
8214;DHT22;4148;47.974;7.824;2023-11-22T13:46:22;4.30;99.90
8214;DHT22;4148;47.974;7.824;2023-11-22T13:48:50;4.40;89.40
8214;DHT22;4148;47.974;7.824;2023-11-22T13:51:18;4.30;99.90
8214;DHT22;4148;47.974;7.824;2023-11-22T13:53:47;4.40;99.90
8214;DHT22;4148;47.974;7.824;2023-11-22T13:56:20;4.30;1.00
8214;DHT22;4148;47.974;7.824;2023-11-22T13:58:48;4.30;99.90
8214;DHT22;4148;47.974;7.824;2023-11-22T14:01:16;4.30;1.00
8214;DHT22;4148;47.974;7.824;2023-11-22T14:03:49;4.40;1.00
8214;DHT22;4148;47.974;7.824;2023-11-22T14:06:19;4.40;99.90
8214;DHT22;4148;47.974;7.824;2023-11-22T14:08:48;4.20;99.90
8214;DHT22;4148;47.974;7.824;2023-11-22T14:11:16;4.30;97.70
8214;DHT22;4148;47.974;7.824;2023-11-22T14:13:44;4.30;99.90
8214;DHT22;4148;47.974;7.824;2023-11-22T14:16:12;4.40;99.90
8214;DHT22;4148;47.974;7.824;2023-11-22T14:18:40;4.30;1.00
8214;DHT22;4148;47.974;7.824;2023-11-22T14:21:08;4.30;99.90
8214;DHT22;4148;47.974;7.824;2023-11-22T14:23:37;4.30;1.00
8214;DHT22;4148;47.974;7.824;2023-11-22T14:26:06;4.30;99.90
8214;DHT22;4148;47.974;7.824;2023-11-22T14:28:34;4.20;99.90
8214;DHT22;4148;47.974;7.824;2023-11-22T14:31:02;4.20;1.00
8214;DHT22;4148;47.974;7.824;2023-11-22T14:33:31;4.20;99.90
8214;DHT22;4148;47.974;7.824;2023-11-22T14:35:59;4.20;56.80
8214;DHT22;4148;47.974;7.824;2023-11-22T14:38:27;4.20;99.90
8214;DHT22;4148;47.974;7.824;2023-11-22T14:40:55;4.20;1.00
8214;DHT22;4148;47.974;7.824;2023-11-22T14:43:25;4.10;99.90
8214;DHT22;4148;47.974;7.824;2023-11-22T14:45:53;4.20;99.90
8214;DHT22;4148;47.974;7.824;2023-11-22T14:48:22;4.10;1.00
8214;DHT22;4148;47.974;7.824;2023-11-22T14:50:50;4.10;1.00
8214;DHT22;4148;47.974;7.824;2023-11-22T14:53:18;4.10;99.90
8214;DHT22;4148;47.974;7.824;2023-11-22T14:55:46;4.00;99.90
8214;DHT22;4148;47.974;7.824;2023-11-22T14:58:14;4.10;99.90
8214;DHT22;4148;47.974;7.824;2023-11-22T15:00:43;4.10;99.90
8214;DHT22;4148;47.974;7.824;2023-11-22T15:03:11;4.10;49.60
8214;DHT22;4148;47.974;7.824;2023-11-22T15:05:39;4.20;55.80
8214;DHT22;4148;47.974;7.824;2023-11-22T15:08:08;4.10;80.60
8214;DHT22;4148;47.974;7.824;2023-11-22T15:10:36;4.00;99.90
8214;DHT22;4148;47.974;7.824;2023-11-22T15:13:04;4.10;54.00
8214;DHT22;4148;47.974;7.824;2023-11-22T15:15:32;4.10;99.90
8214;DHT22;4148;47.974;7.824;2023-11-22T15:18:01;4.10;99.90
8214;DHT22;4148;47.974;7.824;2023-11-22T15:20:29;4.10;26.70
8214;DHT22;4148;47.974;7.824;2023-11-22T15:22:57;4.10;99.90
8214;DHT22;4148;47.974;7.824;2023-11-22T15:25:25;4.10;99.90
8214;DHT22;4148;47.974;7.824;2023-11-22T15:27:53;4.10;1.00
8214;DHT22;4148;47.974;7.824;2023-11-22T15:30:21;4.00;99.90
8214;DHT22;4148;47.974;7.824;2023-11-22T15:32:49;4.10;99.90
8214;DHT22;4148;47.974;7.824;2023-11-22T15:35:19;4.00;57.60
8214;DHT22;4148;47.974;7.824;2023-11-22T15:37:46;4.00;1.00
8214;DHT22;4148;47.974;7.824;2023-11-22T15:40:14;4.00;1.00
8214;DHT22;4148;47.974;7.824;2023-11-22T15:42:44;4.00;99.90
8214;DHT22;4148;47.974;7.824;2023-11-22T15:45:12;4.10;8.80
8214;DHT22;4148;47.974;7.824;2023-11-22T15:47:40;4.10;99.90
8214;DHT22;4148;47.974;7.824;2023-11-22T15:50:09;4.10;99.90
8214;DHT22;4148;47.974;7.824;2023-11-22T15:52:38;4.10;99.90
8214;DHT22;4148;47.974;7.824;2023-11-22T15:55:07;4.00;1.00
8214;DHT22;4148;47.974;7.824;2023-11-22T15:57:35;4.00;1.00
8214;DHT22;4148;47.974;7.824;2023-11-22T16:00:04;4.10;1.00
8214;DHT22;4148;47.974;7.824;2023-11-22T16:02:36;4.10;1.00
8214;DHT22;4148;47.974;7.824;2023-11-22T16:05:05;4.10;94.30
8214;DHT22;4148;47.974;7.824;2023-11-22T16:07:39;4.10;99.90
8214;DHT22;4148;47.974;7.824;2023-11-22T16:10:08;4.20;99.90
8214;DHT22;4148;47.974;7.824;2023-11-22T16:12:37;4.20;99.90
8214;DHT22;4148;47.974;7.824;2023-11-22T16:15:06;4.10;1.00
8214;DHT22;4148;47.974;7.824;2023-11-22T16:17:35;4.00;17.20
8214;DHT22;4148;47.974;7.824;2023-11-22T16:20:04;4.10;1.00
8214;DHT22;4148;47.974;7.824;2023-11-22T16:22:40;4.10;1.00
8214;DHT22;4148;47.974;7.824;2023-11-22T16:25:11;4.10;1.00
8214;DHT22;4148;47.974;7.824;2023-11-22T16:27:40;4.10;99.90
8214;DHT22;4148;47.974;7.824;2023-11-22T16:30:08;4.20;1.00
8214;DHT22;4148;47.974;7.824;2023-11-22T16:32:37;4.10;1.00
8214;DHT22;4148;47.974;7.824;2023-11-22T16:35:06;4.10;99.90
8214;DHT22;4148;47.974;7.824;2023-11-22T16:37:34;4.00;99.90
8214;DHT22;4148;47.974;7.824;2023-11-22T16:40:05;4.00;99.90
8214;DHT22;4148;47.974;7.824;2023-11-22T16:42:35;4.20;99.90